sensor_id;sensor_type;location;lat;lon;timestamp;P1;durP1;ratioP1;P2;durP2;ratioP2
48911;SDS011;34722;52.108;5.044;2023-10-19T00:02:07;38.75;;;23.50;;
48911;SDS011;34722;52.108;5.044;2023-10-19T00:04:33;37.90;;;21.52;;
48911;SDS011;34722;52.108;5.044;2023-10-19T00:07:03;43.10;;;25.10;;
48911;SDS011;34722;52.108;5.044;2023-10-19T00:09:31;42.15;;;23.90;;
48911;SDS011;34722;52.108;5.044;2023-10-19T00:12:02;38.92;;;22.88;;
48911;SDS011;34722;52.108;5.044;2023-10-19T00:14:30;45.72;;;26.00;;
48911;SDS011;34722;52.108;5.044;2023-10-19T00:16:57;42.58;;;25.55;;
48911;SDS011;34722;52.108;5.044;2023-10-19T00:19:26;45.42;;;24.85;;
48911;SDS011;34722;52.108;5.044;2023-10-19T00:21:55;45.40;;;26.50;;
48911;SDS011;34722;52.108;5.044;2023-10-19T00:24:26;48.75;;;26.73;;
48911;SDS011;34722;52.108;5.044;2023-10-19T00:26:52;48.38;;;26.60;;
48911;SDS011;34722;52.108;5.044;2023-10-19T00:29:20;47.67;;;26.45;;
48911;SDS011;34722;52.108;5.044;2023-10-19T00:31:59;51.85;;;29.05;;
48911;SDS011;34722;52.108;5.044;2023-10-19T00:34:25;49.83;;;27.35;;
48911;SDS011;34722;52.108;5.044;2023-10-19T00:36:53;51.80;;;28.95;;
48911;SDS011;34722;52.108;5.044;2023-10-19T00:39:21;53.70;;;29.38;;
48911;SDS011;34722;52.108;5.044;2023-10-19T00:41:49;51.97;;;28.27;;
48911;SDS011;34722;52.108;5.044;2023-10-19T00:44:15;54.30;;;29.98;;
48911;SDS011;34722;52.108;5.044;2023-10-19T00:46:47;57.55;;;29.92;;
48911;SDS011;34722;52.108;5.044;2023-10-19T00:49:20;52.67;;;28.63;;
48911;SDS011;34722;52.108;5.044;2023-10-19T00:51:49;55.08;;;29.90;;
48911;SDS011;34722;52.108;5.044;2023-10-19T00:54:25;57.47;;;31.05;;
48911;SDS011;34722;52.108;5.044;2023-10-19T00:57:16;55.10;;;30.08;;
48911;SDS011;34722;52.108;5.044;2023-10-19T00:59:46;57.05;;;31.60;;
48911;SDS011;34722;52.108;5.044;2023-10-19T01:02:12;59.70;;;30.77;;
48911;SDS011;34722;52.108;5.044;2023-10-19T01:04:47;61.33;;;33.13;;
48911;SDS011;34722;52.108;5.044;2023-10-19T01:07:30;61.28;;;30.40;;
48911;SDS011;34722;52.108;5.044;2023-10-19T01:10:02;64.10;;;33.15;;
48911;SDS011;34722;52.108;5.044;2023-10-19T01:12:32;60.50;;;33.35;;
48911;SDS011;34722;52.108;5.044;2023-10-19T01:17:47;69.28;;;32.70;;
48911;SDS011;34722;52.108;5.044;2023-10-19T01:20:19;64.57;;;33.67;;
48911;SDS011;34722;52.108;5.044;2023-10-19T01:25:30;64.53;;;33.22;;
48911;SDS011;34722;52.108;5.044;2023-10-19T01:28:02;67.45;;;32.70;;
48911;SDS011;34722;52.108;5.044;2023-10-19T01:30:32;66.43;;;34.65;;
48911;SDS011;34722;52.108;5.044;2023-10-19T01:33:01;63.38;;;33.10;;
48911;SDS011;34722;52.108;5.044;2023-10-19T01:35:29;67.65;;;33.58;;
48911;SDS011;34722;52.108;5.044;2023-10-19T01:38:15;64.18;;;32.75;;
48911;SDS011;34722;52.108;5.044;2023-10-19T01:40:44;65.32;;;32.60;;
48911;SDS011;34722;52.108;5.044;2023-10-19T01:43:13;64.03;;;33.28;;
48911;SDS011;34722;52.108;5.044;2023-10-19T01:45:47;65.93;;;33.20;;
48911;SDS011;34722;52.108;5.044;2023-10-19T01:48:13;61.33;;;31.77;;
48911;SDS011;34722;52.108;5.044;2023-10-19T01:50:40;56.40;;;31.48;;
48911;SDS011;34722;52.108;5.044;2023-10-19T01:53:06;68.13;;;32.50;;
48911;SDS011;34722;52.108;5.044;2023-10-19T01:55:40;61.78;;;30.40;;
48911;SDS011;34722;52.108;5.044;2023-10-19T01:58:09;69.43;;;32.25;;
48911;SDS011;34722;52.108;5.044;2023-10-19T02:00:36;64.65;;;30.95;;
48911;SDS011;34722;52.108;5.044;2023-10-19T02:03:11;63.38;;;31.55;;
48911;SDS011;34722;52.108;5.044;2023-10-19T02:05:36;62.58;;;29.35;;
48911;SDS011;34722;52.108;5.044;2023-10-19T02:08:12;59.83;;;28.92;;
48911;SDS011;34722;52.108;5.044;2023-10-19T02:10:38;62.45;;;28.27;;
48911;SDS011;34722;52.108;5.044;2023-10-19T02:13:07;59.97;;;28.45;;
48911;SDS011;34722;52.108;5.044;2023-10-19T02:15:39;62.33;;;27.73;;
48911;SDS011;34722;52.108;5.044;2023-10-19T02:18:05;62.35;;;27.35;;
48911;SDS011;34722;52.108;5.044;2023-10-19T02:20:30;62.35;;;26.02;;
48911;SDS011;34722;52.108;5.044;2023-10-19T02:22:57;55.13;;;26.50;;
48911;SDS011;34722;52.108;5.044;2023-10-19T02:25:23;61.67;;;26.98;;
48911;SDS011;34722;52.108;5.044;2023-10-19T02:27:56;48.70;;;24.58;;
48911;SDS011;34722;52.108;5.044;2023-10-19T02:30:21;53.83;;;25.30;;
48911;SDS011;34722;52.108;5.044;2023-10-19T02:32:49;55.78;;;25.20;;
48911;SDS011;34722;52.108;5.044;2023-10-19T02:35:15;47.78;;;25.13;;
48911;SDS011;34722;52.108;5.044;2023-10-19T02:37:41;62.60;;;26.83;;
48911;SDS011;34722;52.108;5.044;2023-10-19T02:40:07;60.30;;;25.02;;
48911;SDS011;34722;52.108;5.044;2023-10-19T02:42:45;56.20;;;25.67;;
48911;SDS011;34722;52.108;5.044;2023-10-19T02:45:48;60.17;;;25.10;;
48911;SDS011;34722;52.108;5.044;2023-10-19T02:48:14;56.92;;;25.33;;
48911;SDS011;34722;52.108;5.044;2023-10-19T02:50:55;55.15;;;24.75;;
48911;SDS011;34722;52.108;5.044;2023-10-19T02:53:26;60.22;;;26.55;;
48911;SDS011;34722;52.108;5.044;2023-10-19T02:55:53;64.60;;;26.00;;
48911;SDS011;34722;52.108;5.044;2023-10-19T02:58:24;59.88;;;26.35;;
48911;SDS011;34722;52.108;5.044;2023-10-19T03:00:59;63.10;;;25.35;;
48911;SDS011;34722;52.108;5.044;2023-10-19T03:03:25;48.20;;;24.05;;
48911;SDS011;34722;52.108;5.044;2023-10-19T03:05:54;63.63;;;25.27;;
48911;SDS011;34722;52.108;5.044;2023-10-19T03:11:41;47.92;;;22.85;;
48911;SDS011;34722;52.108;5.044;2023-10-19T03:14:09;45.08;;;21.88;;
48911;SDS011;34722;52.108;5.044;2023-10-19T03:16:36;42.85;;;20.83;;
48911;SDS011;34722;52.108;5.044;2023-10-19T03:19:02;44.35;;;20.20;;
48911;SDS011;34722;52.108;5.044;2023-10-19T03:21:29;42.28;;;20.35;;
48911;SDS011;34722;52.108;5.044;2023-10-19T03:23:59;39.30;;;18.65;;
48911;SDS011;34722;52.108;5.044;2023-10-19T03:26:30;30.85;;;17.00;;
48911;SDS011;34722;52.108;5.044;2023-10-19T03:28:56;43.85;;;19.65;;
48911;SDS011;34722;52.108;5.044;2023-10-19T03:31:37;34.35;;;17.75;;
48911;SDS011;34722;52.108;5.044;2023-10-19T03:34:08;30.48;;;16.02;;
48911;SDS011;34722;52.108;5.044;2023-10-19T03:36:35;31.60;;;15.85;;
48911;SDS011;34722;52.108;5.044;2023-10-19T03:39:01;34.35;;;16.30;;
48911;SDS011;34722;52.108;5.044;2023-10-19T03:41:36;24.23;;;13.82;;
48911;SDS011;34722;52.108;5.044;2023-10-19T03:44:04;28.63;;;13.25;;
48911;SDS011;34722;52.108;5.044;2023-10-19T03:46:30;21.92;;;12.75;;
48911;SDS011;34722;52.108;5.044;2023-10-19T03:48:59;28.25;;;11.80;;
48911;SDS011;34722;52.108;5.044;2023-10-19T03:51:38;21.75;;;11.95;;
48911;SDS011;34722;52.108;5.044;2023-10-19T03:54:08;26.35;;;12.10;;
48911;SDS011;34722;52.108;5.044;2023-10-19T03:56:50;21.92;;;10.50;;
48911;SDS011;34722;52.108;5.044;2023-10-19T03:59:17;16.13;;;8.85;;
48911;SDS011;34722;52.108;5.044;2023-10-19T04:01:43;19.40;;;8.68;;
48911;SDS011;34722;52.108;5.044;2023-10-19T04:04:09;17.02;;;8.20;;
48911;SDS011;34722;52.108;5.044;2023-10-19T04:06:35;19.70;;;8.55;;
48911;SDS011;34722;52.108;5.044;2023-10-19T04:09:05;15.32;;;8.15;;
48911;SDS011;34722;52.108;5.044;2023-10-19T04:11:31;11.95;;;6.93;;
48911;SDS011;34722;52.108;5.044;2023-10-19T04:14:16;16.63;;;7.07;;
48911;SDS011;34722;52.108;5.044;2023-10-19T04:16:42;16.35;;;7.50;;
48911;SDS011;34722;52.108;5.044;2023-10-19T04:19:09;13.88;;;7.00;;
48911;SDS011;34722;52.108;5.044;2023-10-19T04:21:35;12.48;;;6.20;;
48911;SDS011;34722;52.108;5.044;2023-10-19T04:24:04;16.63;;;7.68;;
48911;SDS011;34722;52.108;5.044;2023-10-19T04:26:32;12.38;;;5.80;;
48911;SDS011;34722;52.108;5.044;2023-10-19T04:29:02;11.13;;;5.55;;
48911;SDS011;34722;52.108;5.044;2023-10-19T04:31:46;12.25;;;5.35;;
48911;SDS011;34722;52.108;5.044;2023-10-19T04:34:20;15.23;;;5.20;;
48911;SDS011;34722;52.108;5.044;2023-10-19T04:36:47;13.07;;;4.80;;
48911;SDS011;34722;52.108;5.044;2023-10-19T04:39:13;10.25;;;4.80;;
48911;SDS011;34722;52.108;5.044;2023-10-19T04:41:39;8.85;;;4.85;;
48911;SDS011;34722;52.108;5.044;2023-10-19T04:44:05;12.30;;;4.45;;
48911;SDS011;34722;52.108;5.044;2023-10-19T04:46:33;6.00;;;4.00;;
48911;SDS011;34722;52.108;5.044;2023-10-19T04:49:05;9.95;;;4.22;;
48911;SDS011;34722;52.108;5.044;2023-10-19T04:51:30;8.93;;;4.03;;
48911;SDS011;34722;52.108;5.044;2023-10-19T04:53:56;10.88;;;4.50;;
48911;SDS011;34722;52.108;5.044;2023-10-19T04:56:22;12.35;;;4.03;;
48911;SDS011;34722;52.108;5.044;2023-10-19T04:58:47;11.20;;;4.07;;
48911;SDS011;34722;52.108;5.044;2023-10-19T05:01:13;12.35;;;4.00;;
48911;SDS011;34722;52.108;5.044;2023-10-19T05:03:40;5.38;;;3.70;;
48911;SDS011;34722;52.108;5.044;2023-10-19T05:06:06;13.45;;;3.55;;
48911;SDS011;34722;52.108;5.044;2023-10-19T05:08:32;7.03;;;3.78;;
48911;SDS011;34722;52.108;5.044;2023-10-19T05:10:58;7.95;;;3.55;;
48911;SDS011;34722;52.108;5.044;2023-10-19T05:13:53;8.13;;;3.60;;
48911;SDS011;34722;52.108;5.044;2023-10-19T05:16:19;13.02;;;3.63;;
48911;SDS011;34722;52.108;5.044;2023-10-19T05:18:45;9.07;;;3.20;;
48911;SDS011;34722;52.108;5.044;2023-10-19T05:21:12;6.25;;;4.25;;
48911;SDS011;34722;52.108;5.044;2023-10-19T05:23:38;11.55;;;3.50;;
48911;SDS011;34722;52.108;5.044;2023-10-19T05:26:04;10.63;;;2.88;;
48911;SDS011;34722;52.108;5.044;2023-10-19T05:28:45;9.18;;;3.03;;
48911;SDS011;34722;52.108;5.044;2023-10-19T05:31:12;7.53;;;3.40;;
48911;SDS011;34722;52.108;5.044;2023-10-19T05:33:38;9.57;;;3.00;;
48911;SDS011;34722;52.108;5.044;2023-10-19T05:36:04;9.93;;;3.42;;
48911;SDS011;34722;52.108;5.044;2023-10-19T05:38:30;8.68;;;2.88;;
48911;SDS011;34722;52.108;5.044;2023-10-19T05:40:57;6.80;;;2.90;;
48911;SDS011;34722;52.108;5.044;2023-10-19T05:43:24;12.40;;;3.22;;
48911;SDS011;34722;52.108;5.044;2023-10-19T05:45:50;7.68;;;3.10;;
48911;SDS011;34722;52.108;5.044;2023-10-19T05:48:19;10.25;;;2.97;;
48911;SDS011;34722;52.108;5.044;2023-10-19T05:50:45;7.25;;;3.05;;
48911;SDS011;34722;52.108;5.044;2023-10-19T05:53:11;8.68;;;2.92;;
48911;SDS011;34722;52.108;5.044;2023-10-19T05:55:37;10.43;;;3.10;;
48911;SDS011;34722;52.108;5.044;2023-10-19T05:58:04;10.70;;;3.25;;
48911;SDS011;34722;52.108;5.044;2023-10-19T06:00:30;9.60;;;3.20;;
48911;SDS011;34722;52.108;5.044;2023-10-19T06:02:56;10.77;;;4.13;;
48911;SDS011;34722;52.108;5.044;2023-10-19T06:05:22;10.48;;;3.60;;
48911;SDS011;34722;52.108;5.044;2023-10-19T06:07:49;7.70;;;3.58;;
48911;SDS011;34722;52.108;5.044;2023-10-19T06:10:16;8.38;;;3.17;;
48911;SDS011;34722;52.108;5.044;2023-10-19T06:13:31;9.10;;;3.08;;
48911;SDS011;34722;52.108;5.044;2023-10-19T06:16:00;7.45;;;3.70;;
48911;SDS011;34722;52.108;5.044;2023-10-19T06:18:32;16.58;;;4.57;;
48911;SDS011;34722;52.108;5.044;2023-10-19T06:20:57;7.15;;;2.83;;
48911;SDS011;34722;52.108;5.044;2023-10-19T06:23:23;9.85;;;3.10;;
48911;SDS011;34722;52.108;5.044;2023-10-19T06:25:48;9.23;;;3.55;;
48911;SDS011;34722;52.108;5.044;2023-10-19T06:28:16;4.97;;;3.10;;
48911;SDS011;34722;52.108;5.044;2023-10-19T06:30:42;5.93;;;3.20;;
48911;SDS011;34722;52.108;5.044;2023-10-19T06:33:08;8.32;;;2.80;;
48911;SDS011;34722;52.108;5.044;2023-10-19T06:35:33;14.88;;;3.63;;
48911;SDS011;34722;52.108;5.044;2023-10-19T06:38:02;11.52;;;3.63;;
48911;SDS011;34722;52.108;5.044;2023-10-19T06:40:29;8.75;;;3.20;;
48911;SDS011;34722;52.108;5.044;2023-10-19T06:43:00;10.55;;;2.97;;
48911;SDS011;34722;52.108;5.044;2023-10-19T06:45:28;8.60;;;3.20;;
48911;SDS011;34722;52.108;5.044;2023-10-19T06:47:57;7.30;;;2.95;;
48911;SDS011;34722;52.108;5.044;2023-10-19T06:50:25;10.73;;;3.03;;
48911;SDS011;34722;52.108;5.044;2023-10-19T06:59:32;13.45;;;3.90;;
48911;SDS011;34722;52.108;5.044;2023-10-19T07:01:58;8.35;;;3.53;;
48911;SDS011;34722;52.108;5.044;2023-10-19T07:04:26;12.35;;;3.38;;
48911;SDS011;34722;52.108;5.044;2023-10-19T07:06:56;7.35;;;3.63;;
48911;SDS011;34722;52.108;5.044;2023-10-19T07:09:22;12.43;;;3.53;;
48911;SDS011;34722;52.108;5.044;2023-10-19T07:11:48;8.13;;;3.63;;
48911;SDS011;34722;52.108;5.044;2023-10-19T07:14:18;6.88;;;3.15;;
48911;SDS011;34722;52.108;5.044;2023-10-19T07:16:44;10.43;;;3.85;;
48911;SDS011;34722;52.108;5.044;2023-10-19T07:19:10;6.78;;;3.08;;
48911;SDS011;34722;52.108;5.044;2023-10-19T07:21:35;9.40;;;3.72;;
48911;SDS011;34722;52.108;5.044;2023-10-19T07:24:02;8.25;;;3.40;;
48911;SDS011;34722;52.108;5.044;2023-10-19T07:26:31;10.77;;;3.03;;
48911;SDS011;34722;52.108;5.044;2023-10-19T07:28:59;15.10;;;3.25;;
48911;SDS011;34722;52.108;5.044;2023-10-19T07:31:25;7.93;;;3.90;;
48911;SDS011;34722;52.108;5.044;2023-10-19T07:33:52;9.20;;;3.10;;
48911;SDS011;34722;52.108;5.044;2023-10-19T07:36:20;14.70;;;3.75;;
48911;SDS011;34722;52.108;5.044;2023-10-19T07:38:46;12.43;;;3.22;;
48911;SDS011;34722;52.108;5.044;2023-10-19T07:41:12;12.50;;;3.47;;
48911;SDS011;34722;52.108;5.044;2023-10-19T07:43:41;6.22;;;3.05;;
48911;SDS011;34722;52.108;5.044;2023-10-19T07:46:09;7.72;;;3.22;;
48911;SDS011;34722;52.108;5.044;2023-10-19T07:48:37;9.02;;;3.25;;
48911;SDS011;34722;52.108;5.044;2023-10-19T07:51:06;8.20;;;3.75;;
48911;SDS011;34722;52.108;5.044;2023-10-19T07:53:35;12.80;;;4.13;;
48911;SDS011;34722;52.108;5.044;2023-10-19T07:56:01;8.10;;;3.25;;
48911;SDS011;34722;52.108;5.044;2023-10-19T07:58:26;7.05;;;3.20;;
48911;SDS011;34722;52.108;5.044;2023-10-19T08:00:52;14.00;;;5.03;;
48911;SDS011;34722;52.108;5.044;2023-10-19T08:03:18;7.93;;;3.35;;
48911;SDS011;34722;52.108;5.044;2023-10-19T08:05:44;10.75;;;3.38;;
48911;SDS011;34722;52.108;5.044;2023-10-19T08:08:24;11.90;;;3.53;;
48911;SDS011;34722;52.108;5.044;2023-10-19T08:10:50;13.88;;;4.10;;
48911;SDS011;34722;52.108;5.044;2023-10-19T08:13:16;13.93;;;4.40;;
48911;SDS011;34722;52.108;5.044;2023-10-19T08:15:42;13.55;;;3.92;;
48911;SDS011;34722;52.108;5.044;2023-10-19T08:18:07;11.68;;;3.88;;
48911;SDS011;34722;52.108;5.044;2023-10-19T08:20:33;10.00;;;4.28;;
48911;SDS011;34722;52.108;5.044;2023-10-19T08:23:02;12.20;;;4.22;;
48911;SDS011;34722;52.108;5.044;2023-10-19T08:25:27;13.38;;;4.25;;
48911;SDS011;34722;52.108;5.044;2023-10-19T08:27:53;10.43;;;4.28;;
48911;SDS011;34722;52.108;5.044;2023-10-19T08:30:22;11.60;;;4.35;;
48911;SDS011;34722;52.108;5.044;2023-10-19T08:32:49;13.07;;;4.70;;
48911;SDS011;34722;52.108;5.044;2023-10-19T08:35:16;11.25;;;3.97;;
48911;SDS011;34722;52.108;5.044;2023-10-19T08:37:57;8.77;;;3.45;;
48911;SDS011;34722;52.108;5.044;2023-10-19T08:40:29;11.75;;;3.90;;
48911;SDS011;34722;52.108;5.044;2023-10-19T08:42:54;10.57;;;4.22;;
48911;SDS011;34722;52.108;5.044;2023-10-19T08:45:23;7.72;;;4.07;;
48911;SDS011;34722;52.108;5.044;2023-10-19T08:51:49;11.60;;;3.20;;
48911;SDS011;34722;52.108;5.044;2023-10-19T08:54:30;14.73;;;4.10;;
48911;SDS011;34722;52.108;5.044;2023-10-19T08:56:58;9.95;;;3.60;;
48911;SDS011;34722;52.108;5.044;2023-10-19T08:59:24;8.68;;;3.83;;
48911;SDS011;34722;52.108;5.044;2023-10-19T09:01:50;15.63;;;4.53;;
48911;SDS011;34722;52.108;5.044;2023-10-19T09:04:16;11.35;;;3.60;;
48911;SDS011;34722;52.108;5.044;2023-10-19T09:06:44;12.77;;;4.50;;
48911;SDS011;34722;52.108;5.044;2023-10-19T09:09:11;8.80;;;4.38;;
48911;SDS011;34722;52.108;5.044;2023-10-19T09:11:57;8.63;;;3.95;;
48911;SDS011;34722;52.108;5.044;2023-10-19T09:14:33;13.85;;;3.80;;
48911;SDS011;34722;52.108;5.044;2023-10-19T09:17:01;13.77;;;4.38;;
48911;SDS011;34722;52.108;5.044;2023-10-19T09:19:39;7.28;;;3.70;;
48911;SDS011;34722;52.108;5.044;2023-10-19T09:22:06;9.20;;;3.95;;
48911;SDS011;34722;52.108;5.044;2023-10-19T09:24:36;12.60;;;4.45;;
48911;SDS011;34722;52.108;5.044;2023-10-19T09:27:05;9.68;;;3.50;;
48911;SDS011;34722;52.108;5.044;2023-10-19T09:29:31;5.15;;;3.42;;
48911;SDS011;34722;52.108;5.044;2023-10-19T09:31:59;5.75;;;4.07;;
48911;SDS011;34722;52.108;5.044;2023-10-19T09:34:29;4.47;;;3.83;;
48911;SDS011;34722;52.108;5.044;2023-10-19T09:37:02;11.20;;;4.40;;
48911;SDS011;34722;52.108;5.044;2023-10-19T09:39:32;10.77;;;3.55;;
48911;SDS011;34722;52.108;5.044;2023-10-19T09:42:05;13.98;;;4.75;;
48911;SDS011;34722;52.108;5.044;2023-10-19T09:44:59;7.53;;;3.90;;
48911;SDS011;34722;52.108;5.044;2023-10-19T09:47:34;7.75;;;3.80;;
48911;SDS011;34722;52.108;5.044;2023-10-19T09:50:04;8.70;;;3.92;;
48911;SDS011;34722;52.108;5.044;2023-10-19T09:52:32;11.52;;;4.30;;
48911;SDS011;34722;52.108;5.044;2023-10-19T09:57:55;10.25;;;3.92;;
48911;SDS011;34722;52.108;5.044;2023-10-19T10:00:24;10.18;;;4.68;;
48911;SDS011;34722;52.108;5.044;2023-10-19T10:02:53;10.93;;;5.25;;
48911;SDS011;34722;52.108;5.044;2023-10-19T10:10:43;7.47;;;4.15;;
48911;SDS011;34722;52.108;5.044;2023-10-19T10:15:52;6.85;;;3.50;;
48911;SDS011;34722;52.108;5.044;2023-10-19T10:18:19;16.98;;;5.18;;
48911;SDS011;34722;52.108;5.044;2023-10-19T10:20:45;12.98;;;4.05;;
48911;SDS011;34722;52.108;5.044;2023-10-19T10:23:23;8.73;;;3.13;;
48911;SDS011;34722;52.108;5.044;2023-10-19T10:25:51;15.75;;;4.32;;
48911;SDS011;34722;52.108;5.044;2023-10-19T10:28:19;10.98;;;4.40;;
48911;SDS011;34722;52.108;5.044;2023-10-19T10:34:10;7.38;;;3.95;;
48911;SDS011;34722;52.108;5.044;2023-10-19T10:39:25;12.90;;;4.22;;
48911;SDS011;34722;52.108;5.044;2023-10-19T10:42:00;11.50;;;4.00;;
48911;SDS011;34722;52.108;5.044;2023-10-19T10:44:37;12.70;;;4.93;;
48911;SDS011;34722;52.108;5.044;2023-10-19T10:47:07;7.93;;;3.50;;
48911;SDS011;34722;52.108;5.044;2023-10-19T10:49:58;7.88;;;3.22;;
48911;SDS011;34722;52.108;5.044;2023-10-19T10:52:35;17.63;;;4.55;;
48911;SDS011;34722;52.108;5.044;2023-10-19T10:55:08;10.13;;;3.63;;
48911;SDS011;34722;52.108;5.044;2023-10-19T10:57:38;12.23;;;3.60;;
48911;SDS011;34722;52.108;5.044;2023-10-19T11:00:05;7.25;;;3.58;;
48911;SDS011;34722;52.108;5.044;2023-10-19T11:02:40;11.23;;;3.97;;
48911;SDS011;34722;52.108;5.044;2023-10-19T11:05:10;10.18;;;3.42;;
48911;SDS011;34722;52.108;5.044;2023-10-19T11:10:35;10.02;;;4.03;;
48911;SDS011;34722;52.108;5.044;2023-10-19T11:13:04;13.35;;;4.18;;
48911;SDS011;34722;52.108;5.044;2023-10-19T11:20:44;13.57;;;4.63;;
48911;SDS011;34722;52.108;5.044;2023-10-19T11:23:18;14.43;;;4.18;;
48911;SDS011;34722;52.108;5.044;2023-10-19T11:25:44;10.98;;;4.15;;
48911;SDS011;34722;52.108;5.044;2023-10-19T11:28:16;11.38;;;3.67;;
48911;SDS011;34722;52.108;5.044;2023-10-19T11:30:42;14.68;;;4.18;;
48911;SDS011;34722;52.108;5.044;2023-10-19T11:33:08;17.98;;;4.05;;
48911;SDS011;34722;52.108;5.044;2023-10-19T11:35:34;15.65;;;4.00;;
48911;SDS011;34722;52.108;5.044;2023-10-19T11:38:00;23.70;;;4.30;;
48911;SDS011;34722;52.108;5.044;2023-10-19T11:40:27;11.82;;;3.50;;
48911;SDS011;34722;52.108;5.044;2023-10-19T11:42:53;8.48;;;3.35;;
48911;SDS011;34722;52.108;5.044;2023-10-19T11:45:24;9.85;;;3.80;;
48911;SDS011;34722;52.108;5.044;2023-10-19T11:47:49;10.45;;;3.38;;
48911;SDS011;34722;52.108;5.044;2023-10-19T11:50:16;10.10;;;3.63;;
48911;SDS011;34722;52.108;5.044;2023-10-19T11:52:47;11.85;;;3.63;;
48911;SDS011;34722;52.108;5.044;2023-10-19T11:55:13;14.40;;;3.85;;
48911;SDS011;34722;52.108;5.044;2023-10-19T11:57:39;15.88;;;4.20;;
48911;SDS011;34722;52.108;5.044;2023-10-19T12:00:06;11.50;;;4.72;;
48911;SDS011;34722;52.108;5.044;2023-10-19T12:02:37;10.95;;;4.00;;
48911;SDS011;34722;52.108;5.044;2023-10-19T12:05:04;10.60;;;4.10;;
48911;SDS011;34722;52.108;5.044;2023-10-19T12:07:34;15.70;;;3.60;;
48911;SDS011;34722;52.108;5.044;2023-10-19T12:10:07;10.13;;;3.35;;
48911;SDS011;34722;52.108;5.044;2023-10-19T12:12:34;12.38;;;3.13;;
48911;SDS011;34722;52.108;5.044;2023-10-19T12:15:01;17.40;;;4.70;;
48911;SDS011;34722;52.108;5.044;2023-10-19T12:17:27;13.85;;;4.03;;
48911;SDS011;34722;52.108;5.044;2023-10-19T12:19:55;12.43;;;3.63;;
48911;SDS011;34722;52.108;5.044;2023-10-19T12:22:39;13.35;;;3.85;;
48911;SDS011;34722;52.108;5.044;2023-10-19T12:25:08;9.45;;;3.38;;
48911;SDS011;34722;52.108;5.044;2023-10-19T12:27:33;16.30;;;4.00;;
48911;SDS011;34722;52.108;5.044;2023-10-19T12:30:00;10.57;;;3.33;;
48911;SDS011;34722;52.108;5.044;2023-10-19T12:32:36;13.85;;;3.95;;
48911;SDS011;34722;52.108;5.044;2023-10-19T12:35:01;10.35;;;3.80;;
48911;SDS011;34722;52.108;5.044;2023-10-19T12:40:17;10.10;;;3.30;;
48911;SDS011;34722;52.108;5.044;2023-10-19T12:42:53;11.98;;;4.35;;
48911;SDS011;34722;52.108;5.044;2023-10-19T12:45:28;9.98;;;3.20;;
48911;SDS011;34722;52.108;5.044;2023-10-19T12:47:54;13.63;;;3.20;;
48911;SDS011;34722;52.108;5.044;2023-10-19T12:50:20;13.13;;;3.60;;
48911;SDS011;34722;52.108;5.044;2023-10-19T12:52:50;11.95;;;3.25;;
48911;SDS011;34722;52.108;5.044;2023-10-19T12:55:16;9.32;;;3.60;;
48911;SDS011;34722;52.108;5.044;2023-10-19T12:57:42;10.90;;;3.20;;
48911;SDS011;34722;52.108;5.044;2023-10-19T13:00:11;16.27;;;4.57;;
48911;SDS011;34722;52.108;5.044;2023-10-19T13:02:50;15.60;;;3.17;;
48911;SDS011;34722;52.108;5.044;2023-10-19T13:05:26;11.30;;;4.22;;
48911;SDS011;34722;52.108;5.044;2023-10-19T13:07:53;18.30;;;4.38;;
48911;SDS011;34722;52.108;5.044;2023-10-19T13:10:23;14.55;;;4.53;;
48911;SDS011;34722;52.108;5.044;2023-10-19T13:13:14;18.75;;;3.92;;
48911;SDS011;34722;52.108;5.044;2023-10-19T13:15:42;12.00;;;3.22;;
48911;SDS011;34722;52.108;5.044;2023-10-19T13:18:09;11.38;;;3.42;;
48911;SDS011;34722;52.108;5.044;2023-10-19T13:20:36;14.02;;;3.65;;
48911;SDS011;34722;52.108;5.044;2023-10-19T13:23:03;16.67;;;4.10;;
48911;SDS011;34722;52.108;5.044;2023-10-19T13:25:31;16.88;;;4.40;;
48911;SDS011;34722;52.108;5.044;2023-10-19T13:28:16;10.57;;;4.10;;
48911;SDS011;34722;52.108;5.044;2023-10-19T13:30:45;15.70;;;4.80;;
48911;SDS011;34722;52.108;5.044;2023-10-19T13:33:28;13.15;;;4.03;;
48911;SDS011;34722;52.108;5.044;2023-10-19T13:35:54;14.85;;;4.32;;
48911;SDS011;34722;52.108;5.044;2023-10-19T13:38:22;15.25;;;4.97;;
48911;SDS011;34722;52.108;5.044;2023-10-19T13:40:49;17.10;;;5.18;;
48911;SDS011;34722;52.108;5.044;2023-10-19T13:43:15;16.63;;;4.35;;
48911;SDS011;34722;52.108;5.044;2023-10-19T13:45:43;13.50;;;4.65;;
48911;SDS011;34722;52.108;5.044;2023-10-19T13:48:09;13.55;;;4.20;;
48911;SDS011;34722;52.108;5.044;2023-10-19T13:50:45;14.43;;;4.47;;
48911;SDS011;34722;52.108;5.044;2023-10-19T13:53:15;16.13;;;4.93;;
48911;SDS011;34722;52.108;5.044;2023-10-19T13:55:41;9.73;;;3.92;;
48911;SDS011;34722;52.108;5.044;2023-10-19T13:58:07;14.30;;;5.28;;
48911;SDS011;34722;52.108;5.044;2023-10-19T14:00:34;15.65;;;5.82;;
48911;SDS011;34722;52.108;5.044;2023-10-19T14:03:05;16.42;;;6.28;;
48911;SDS011;34722;52.108;5.044;2023-10-19T14:05:36;16.90;;;5.07;;
48911;SDS011;34722;52.108;5.044;2023-10-19T14:18:36;19.42;;;7.50;;
48911;SDS011;34722;52.108;5.044;2023-10-19T14:21:15;15.27;;;5.93;;
48911;SDS011;34722;52.108;5.044;2023-10-19T14:23:42;14.63;;;6.80;;
48911;SDS011;34722;52.108;5.044;2023-10-19T14:26:25;24.45;;;8.13;;
48911;SDS011;34722;52.108;5.044;2023-10-19T14:31:44;25.30;;;7.97;;
48911;SDS011;34722;52.108;5.044;2023-10-19T14:34:10;28.90;;;7.10;;
48911;SDS011;34722;52.108;5.044;2023-10-19T14:36:36;15.65;;;6.50;;
48911;SDS011;34722;52.108;5.044;2023-10-19T14:39:04;13.10;;;6.28;;
48911;SDS011;34722;52.108;5.044;2023-10-19T14:41:33;21.88;;;8.48;;
48911;SDS011;34722;52.108;5.044;2023-10-19T14:44:01;18.58;;;6.47;;
48911;SDS011;34722;52.108;5.044;2023-10-19T14:46:30;17.85;;;7.35;;
48911;SDS011;34722;52.108;5.044;2023-10-19T14:49:00;16.27;;;7.40;;
48911;SDS011;34722;52.108;5.044;2023-10-19T14:51:28;15.77;;;6.15;;
48911;SDS011;34722;52.108;5.044;2023-10-19T14:56:25;21.73;;;7.40;;
48911;SDS011;34722;52.108;5.044;2023-10-19T14:58:51;17.35;;;6.03;;
48911;SDS011;34722;52.108;5.044;2023-10-19T15:01:22;16.50;;;6.05;;
48911;SDS011;34722;52.108;5.044;2023-10-19T15:03:50;19.40;;;6.20;;
48911;SDS011;34722;52.108;5.044;2023-10-19T15:06:16;22.58;;;6.40;;
48911;SDS011;34722;52.108;5.044;2023-10-19T15:08:43;17.73;;;5.57;;
48911;SDS011;34722;52.108;5.044;2023-10-19T15:11:11;23.05;;;6.28;;
48911;SDS011;34722;52.108;5.044;2023-10-19T15:13:42;19.65;;;6.22;;
48911;SDS011;34722;52.108;5.044;2023-10-19T15:16:08;18.38;;;7.20;;
48911;SDS011;34722;52.108;5.044;2023-10-19T15:18:50;26.55;;;8.35;;
48911;SDS011;34722;52.108;5.044;2023-10-19T15:21:21;30.42;;;7.40;;
48911;SDS011;34722;52.108;5.044;2023-10-19T15:23:47;25.90;;;6.57;;
48911;SDS011;34722;52.108;5.044;2023-10-19T15:26:18;17.42;;;6.50;;
48911;SDS011;34722;52.108;5.044;2023-10-19T15:28:43;21.15;;;6.93;;
48911;SDS011;34722;52.108;5.044;2023-10-19T15:31:09;21.77;;;6.10;;
48911;SDS011;34722;52.108;5.044;2023-10-19T15:33:38;18.85;;;7.55;;
48911;SDS011;34722;52.108;5.044;2023-10-19T15:36:04;17.10;;;6.20;;
48911;SDS011;34722;52.108;5.044;2023-10-19T15:38:37;15.02;;;5.45;;
48911;SDS011;34722;52.108;5.044;2023-10-19T15:41:06;21.50;;;5.55;;
48911;SDS011;34722;52.108;5.044;2023-10-19T15:43:37;16.65;;;6.65;;
48911;SDS011;34722;52.108;5.044;2023-10-19T15:46:03;18.67;;;6.45;;
48911;SDS011;34722;52.108;5.044;2023-10-19T15:48:35;20.00;;;6.80;;
48911;SDS011;34722;52.108;5.044;2023-10-19T15:51:02;24.13;;;7.82;;